sensor_id;sensor_type;location;lat;lon;timestamp;pressure;altitude;pressure_sealevel;temperature;humidity
30897;BME280;64229;52.246;21.054;2023-04-19T00:00:59;100893.78;;;10.68;73.33
30897;BME280;64229;52.246;21.054;2023-04-19T00:03:26;100881.19;;;10.64;73.54
30897;BME280;64229;52.246;21.054;2023-04-19T00:05:52;100870.84;;;10.46;73.67
30897;BME280;64229;52.246;21.054;2023-04-19T00:08:18;100862.72;;;10.35;74.26
30897;BME280;64229;52.246;21.054;2023-04-19T00:10:44;100890.88;;;10.48;75.39
30897;BME280;64229;52.246;21.054;2023-04-19T00:13:09;100882.56;;;10.45;75.67
30897;BME280;64229;52.246;21.054;2023-04-19T00:15:37;100883.44;;;10.28;76.00
30897;BME280;64229;52.246;21.054;2023-04-19T00:18:02;100882.56;;;10.23;77.55
30897;BME280;64229;52.246;21.054;2023-04-19T00:20:28;100887.09;;;10.22;77.30
30897;BME280;64229;52.246;21.054;2023-04-19T00:22:53;100878.94;;;10.12;77.46
30897;BME280;64229;52.246;21.054;2023-04-19T00:25:18;100877.47;;;10.21;77.90
30897;BME280;64229;52.246;21.054;2023-04-19T00:27:44;100875.69;;;10.27;77.81
30897;BME280;64229;52.246;21.054;2023-04-19T00:30:09;100871.94;;;10.28;77.61
30897;BME280;64229;52.246;21.054;2023-04-19T00:32:35;100854.44;;;10.15;78.51
30897;BME280;64229;52.246;21.054;2023-04-19T00:35:00;100861.06;;;10.12;77.53
30897;BME280;64229;52.246;21.054;2023-04-19T00:37:25;100855.34;;;10.04;78.61
30897;BME280;64229;52.246;21.054;2023-04-19T00:39:51;100858.19;;;9.97;78.83
30897;BME280;64229;52.246;21.054;2023-04-19T00:42:16;100838.66;;;9.92;78.79
30897;BME280;64229;52.246;21.054;2023-04-19T00:44:41;100843.75;;;9.93;79.12
30897;BME280;64229;52.246;21.054;2023-04-19T00:47:07;100854.16;;;9.95;79.35
30897;BME280;64229;52.246;21.054;2023-04-19T00:49:32;100843.34;;;9.84;80.18
30897;BME280;64229;52.246;21.054;2023-04-19T00:51:58;100850.81;;;9.82;80.36
30897;BME280;64229;52.246;21.054;2023-04-19T00:54:23;100850.81;;;9.82;81.25
30897;BME280;64229;52.246;21.054;2023-04-19T00:56:50;100841.44;;;9.80;80.85
30897;BME280;64229;52.246;21.054;2023-04-19T00:59:15;100831.97;;;9.50;82.56
30897;BME280;64229;52.246;21.054;2023-04-19T01:01:41;100842.25;;;9.64;84.03
30897;BME280;64229;52.246;21.054;2023-04-19T01:04:07;100847.03;;;9.62;85.07
30897;BME280;64229;52.246;21.054;2023-04-19T01:06:36;100831.59;;;9.64;87.05
30897;BME280;64229;52.246;21.054;2023-04-19T01:09:02;100838.09;;;9.51;88.09
30897;BME280;64229;52.246;21.054;2023-04-19T01:11:28;100828.88;;;9.42;89.95
30897;BME280;64229;52.246;21.054;2023-04-19T01:13:56;100834.47;;;9.40;91.24
30897;BME280;64229;52.246;21.054;2023-04-19T01:16:24;100806.16;;;9.17;92.27
30897;BME280;64229;52.246;21.054;2023-04-19T01:18:50;100825.59;;;9.18;93.50
30897;BME280;64229;52.246;21.054;2023-04-19T01:21:15;100788.47;;;8.94;95.59
30897;BME280;64229;52.246;21.054;2023-04-19T01:23:41;100812.59;;;9.05;97.04
30897;BME280;64229;52.246;21.054;2023-04-19T01:26:06;100801.59;;;9.01;97.07
30897;BME280;64229;52.246;21.054;2023-04-19T01:28:32;100815.09;;;8.94;97.68
30897;BME280;64229;52.246;21.054;2023-04-19T01:30:57;100808.06;;;8.88;98.90
30897;BME280;64229;52.246;21.054;2023-04-19T01:33:23;100805.72;;;8.75;99.17
30897;BME280;64229;52.246;21.054;2023-04-19T01:35:49;100806.59;;;8.64;99.84
30897;BME280;64229;52.246;21.054;2023-04-19T01:38:15;100808.88;;;8.60;100.00
30897;BME280;64229;52.246;21.054;2023-04-19T01:40:40;100801.56;;;8.51;100.00
30897;BME280;64229;52.246;21.054;2023-04-19T01:43:06;100794.84;;;8.48;100.00
30897;BME280;64229;52.246;21.054;2023-04-19T01:45:32;100791.28;;;8.43;100.00
30897;BME280;64229;52.246;21.054;2023-04-19T01:47:58;100810.09;;;8.53;100.00
30897;BME280;64229;52.246;21.054;2023-04-19T01:50:25;100791.06;;;8.44;100.00
30897;BME280;64229;52.246;21.054;2023-04-19T01:52:51;100801.56;;;8.51;100.00
30897;BME280;64229;52.246;21.054;2023-04-19T01:55:16;100799.13;;;8.49;100.00
30897;BME280;64229;52.246;21.054;2023-04-19T01:57:42;100799.53;;;8.58;100.00
30897;BME280;64229;52.246;21.054;2023-04-19T02:00:08;100802.56;;;8.61;100.00
30897;BME280;64229;52.246;21.054;2023-04-19T02:02:36;100797.44;;;8.60;100.00
30897;BME280;64229;52.246;21.054;2023-04-19T02:05:01;100798.72;;;8.57;100.00
30897;BME280;64229;52.246;21.054;2023-04-19T02:07:26;100796.41;;;8.61;100.00
30897;BME280;64229;52.246;21.054;2023-04-19T02:09:51;100795.69;;;8.65;100.00
30897;BME280;64229;52.246;21.054;2023-04-19T02:12:17;100798.25;;;8.60;100.00
30897;BME280;64229;52.246;21.054;2023-04-19T02:14:42;100798.25;;;8.60;100.00
30897;BME280;64229;52.246;21.054;2023-04-19T02:17:07;100773.56;;;8.48;100.00
30897;BME280;64229;52.246;21.054;2023-04-19T02:19:33;100794.47;;;8.56;100.00
30897;BME280;64229;52.246;21.054;2023-04-19T02:21:58;100784.72;;;8.62;100.00
30897;BME280;64229;52.246;21.054;2023-04-19T02:24:23;100790.63;;;8.64;100.00
30897;BME280;64229;52.246;21.054;2023-04-19T02:26:49;100790.38;;;8.65;100.00
30897;BME280;64229;52.246;21.054;2023-04-19T02:29:14;100773.75;;;8.58;100.00
30897;BME280;64229;52.246;21.054;2023-04-19T02:31:41;100784.50;;;8.63;100.00
30897;BME280;64229;52.246;21.054;2023-04-19T02:34:07;100784.13;;;8.60;100.00
30897;BME280;64229;52.246;21.054;2023-04-19T02:36:32;100790.06;;;8.62;100.00
30897;BME280;64229;52.246;21.054;2023-04-19T02:38:57;100793.97;;;8.59;100.00
30897;BME280;64229;52.246;21.054;2023-04-19T02:41:23;100765.81;;;8.47;100.00
30897;BME280;64229;52.246;21.054;2023-04-19T02:43:48;100763.53;;;8.38;100.00
30897;BME280;64229;52.246;21.054;2023-04-19T02:46:14;100785.00;;;8.49;100.00
30897;BME280;64229;52.246;21.054;2023-04-19T02:48:39;100780.09;;;8.40;100.00
30897;BME280;64229;52.246;21.054;2023-04-19T02:51:04;100781.94;;;8.40;100.00
30897;BME280;64229;52.246;21.054;2023-04-19T02:53:30;100781.59;;;8.36;100.00
30897;BME280;64229;52.246;21.054;2023-04-19T02:55:55;100775.81;;;8.28;100.00
30897;BME280;64229;52.246;21.054;2023-04-19T02:58:20;100745.72;;;8.10;100.00
30897;BME280;64229;52.246;21.054;2023-04-19T03:00:46;100770.16;;;8.24;100.00
30897;BME280;64229;52.246;21.054;2023-04-19T03:03:11;100767.19;;;8.21;100.00
30897;BME280;64229;52.246;21.054;2023-04-19T03:05:36;100770.53;;;8.16;100.00
30897;BME280;64229;52.246;21.054;2023-04-19T03:08:02;100762.25;;;8.12;100.00
30897;BME280;64229;52.246;21.054;2023-04-19T03:10:27;100761.09;;;8.08;100.00
30897;BME280;64229;52.246;21.054;2023-04-19T03:12:53;100753.03;;;8.03;100.00
30897;BME280;64229;52.246;21.054;2023-04-19T03:15:18;100750.72;;;7.95;100.00
30897;BME280;64229;52.246;21.054;2023-04-19T03:17:44;100748.22;;;7.89;100.00
30897;BME280;64229;52.246;21.054;2023-04-19T03:20:10;100754.34;;;7.89;100.00
30897;BME280;64229;52.246;21.054;2023-04-19T03:22:36;100736.81;;;7.76;100.00
30897;BME280;64229;52.246;21.054;2023-04-19T03:25:03;100743.94;;;7.88;100.00
30897;BME280;64229;52.246;21.054;2023-04-19T03:27:28;100741.84;;;7.90;100.00
30897;BME280;64229;52.246;21.054;2023-04-19T03:29:54;100729.41;;;7.78;100.00
30897;BME280;64229;52.246;21.054;2023-04-19T03:32:20;100735.78;;;7.77;100.00
30897;BME280;64229;52.246;21.054;2023-04-19T03:34:45;100730.78;;;7.81;100.00
30897;BME280;64229;52.246;21.054;2023-04-19T03:37:10;100737.63;;;7.77;100.00
30897;BME280;64229;52.246;21.054;2023-04-19T03:39:36;100721.69;;;7.65;100.00
30897;BME280;64229;52.246;21.054;2023-04-19T03:42:01;100731.63;;;7.70;100.00
30897;BME280;64229;52.246;21.054;2023-04-19T03:44:27;100726.78;;;7.67;100.00
30897;BME280;64229;52.246;21.054;2023-04-19T03:46:52;100688.69;;;7.49;100.00
30897;BME280;64229;52.246;21.054;2023-04-19T03:49:17;100717.97;;;7.78;100.00
30897;BME280;64229;52.246;21.054;2023-04-19T03:51:43;100723.28;;;7.78;100.00
30897;BME280;64229;52.246;21.054;2023-04-19T03:54:08;100723.06;;;7.79;100.00
30897;BME280;64229;52.246;21.054;2023-04-19T03:56:34;100726.19;;;7.76;100.00
30897;BME280;64229;52.246;21.054;2023-04-19T03:58:59;100711.75;;;7.72;100.00
30897;BME280;64229;52.246;21.054;2023-04-19T04:01:25;100716.00;;;7.73;100.00
30897;BME280;64229;52.246;21.054;2023-04-19T04:03:50;100713.13;;;7.75;100.00
30897;BME280;64229;52.246;21.054;2023-04-19T04:06:16;100716.72;;;7.69;100.00
30897;BME280;64229;52.246;21.054;2023-04-19T04:08:41;100704.09;;;7.76;100.00
30897;BME280;64229;52.246;21.054;2023-04-19T04:11:07;100711.75;;;7.72;100.00
30897;BME280;64229;52.246;21.054;2023-04-19T04:13:32;100710.16;;;7.60;100.00
30897;BME280;64229;52.246;21.054;2023-04-19T04:15:57;100708.41;;;7.65;100.00
30897;BME280;64229;52.246;21.054;2023-04-19T04:18:23;100703.56;;;7.62;100.00
30897;BME280;64229;52.246;21.054;2023-04-19T04:20:48;100704.59;;;7.61;100.00
30897;BME280;64229;52.246;21.054;2023-04-19T04:23:13;100707.50;;;7.60;100.00
30897;BME280;64229;52.246;21.054;2023-04-19T04:25:39;100701.50;;;7.52;100.00
30897;BME280;64229;52.246;21.054;2023-04-19T04:28:05;100703.56;;;7.62;100.00
30897;BME280;64229;52.246;21.054;2023-04-19T04:30:31;100700.78;;;7.69;100.00
30897;BME280;64229;52.246;21.054;2023-04-19T04:32:57;100670.94;;;7.38;100.00
30897;BME280;64229;52.246;21.054;2023-04-19T04:35:23;100688.59;;;7.56;100.00
30897;BME280;64229;52.246;21.054;2023-04-19T04:37:48;100685.22;;;7.61;100.00
30897;BME280;64229;52.246;21.054;2023-04-19T04:40:14;100690.84;;;7.64;100.00
30897;BME280;64229;52.246;21.054;2023-04-19T04:42:40;100693.75;;;7.63;100.00
30897;BME280;64229;52.246;21.054;2023-04-19T04:45:05;100687.97;;;7.54;100.00
30897;BME280;64229;52.246;21.054;2023-04-19T04:47:35;100697.78;;;7.65;100.00
30897;BME280;64229;52.246;21.054;2023-04-19T04:50:01;100681.84;;;7.65;100.00
30897;BME280;64229;52.246;21.054;2023-04-19T04:52:27;100683.47;;;7.54;100.00
30897;BME280;64229;52.246;21.054;2023-04-19T04:54:52;100685.22;;;7.61;100.00
30897;BME280;64229;52.246;21.054;2023-04-19T04:57:18;100653.25;;;7.44;100.00
30897;BME280;64229;52.246;21.054;2023-04-19T04:59:43;100674.59;;;7.61;100.00
30897;BME280;64229;52.246;21.054;2023-04-19T05:02:10;100672.84;;;7.54;100.00
30897;BME280;64229;52.246;21.054;2023-04-19T05:04:35;100673.44;;;7.57;100.00
30897;BME280;64229;52.246;21.054;2023-04-19T05:07:01;100677.16;;;7.56;100.00
30897;BME280;64229;52.246;21.054;2023-04-19T05:09:26;100679.66;;;7.62;100.00
30897;BME280;64229;52.246;21.054;2023-04-19T05:11:52;100678.03;;;7.61;100.00
30897;BME280;64229;52.246;21.054;2023-04-19T05:14:17;100676.75;;;7.64;100.00
30897;BME280;64229;52.246;21.054;2023-04-19T05:16:42;100672.41;;;7.58;100.00
30897;BME280;64229;52.246;21.054;2023-04-19T05:19:07;100671.25;;;7.53;100.00
30897;BME280;64229;52.246;21.054;2023-04-19T05:21:33;100670.19;;;7.66;100.00
30897;BME280;64229;52.246;21.054;2023-04-19T05:23:59;100669.84;;;7.63;100.00
30897;BME280;64229;52.246;21.054;2023-04-19T05:26:24;100665.72;;;7.55;100.00
30897;BME280;64229;52.246;21.054;2023-04-19T05:28:49;100665.81;;;7.60;100.00
30897;BME280;64229;52.246;21.054;2023-04-19T05:31:15;100677.31;;;7.77;100.00
30897;BME280;64229;52.246;21.054;2023-04-19T05:33:40;100669.47;;;7.71;100.00
30897;BME280;64229;52.246;21.054;2023-04-19T05:36:06;100666.72;;;7.66;100.00
30897;BME280;64229;52.246;21.054;2023-04-19T05:38:31;100672.22;;;7.76;100.00
30897;BME280;64229;52.246;21.054;2023-04-19T05:40:57;100667.25;;;7.79;100.00
30897;BME280;64229;52.246;21.054;2023-04-19T05:43:22;100646.13;;;7.73;100.00
30897;BME280;64229;52.246;21.054;2023-04-19T05:45:48;100674.50;;;7.84;100.00
30897;BME280;64229;52.246;21.054;2023-04-19T05:48:13;100675.56;;;7.83;100.00
30897;BME280;64229;52.246;21.054;2023-04-19T05:50:38;100661.03;;;7.74;100.00
30897;BME280;64229;52.246;21.054;2023-04-19T05:53:04;100673.13;;;7.81;100.00
30897;BME280;64229;52.246;21.054;2023-04-19T05:55:29;100668.44;;;7.72;100.00
30897;BME280;64229;52.246;21.054;2023-04-19T05:57:55;100664.63;;;7.68;100.00
30897;BME280;64229;52.246;21.054;2023-04-19T06:00:20;100668.91;;;7.69;100.00
30897;BME280;64229;52.246;21.054;2023-04-19T06:02:46;100676.84;;;7.80;100.00
30897;BME280;64229;52.246;21.054;2023-04-19T06:05:11;100663.53;;;7.80;100.00
30897;BME280;64229;52.246;21.054;2023-04-19T06:07:37;100665.47;;;7.85;100.00
30897;BME280;64229;52.246;21.054;2023-04-19T06:10:02;100664.53;;;7.91;100.00
30897;BME280;64229;52.246;21.054;2023-04-19T06:12:27;100655.59;;;7.97;100.00
30897;BME280;64229;52.246;21.054;2023-04-19T06:14:53;100665.53;;;8.02;100.00
30897;BME280;64229;52.246;21.054;2023-04-19T06:17:18;100656.44;;;7.98;100.00
30897;BME280;64229;52.246;21.054;2023-04-19T06:19:50;100654.78;;;8.08;100.00
30897;BME280;64229;52.246;21.054;2023-04-19T06:22:15;100651.06;;;8.09;100.00
30897;BME280;64229;52.246;21.054;2023-04-19T06:24:40;100656.56;;;8.20;100.00
30897;BME280;64229;52.246;21.054;2023-04-19T06:27:06;100658.34;;;8.31;100.00
30897;BME280;64229;52.246;21.054;2023-04-19T06:29:31;100644.66;;;8.39;100.00
30897;BME280;64229;52.246;21.054;2023-04-19T06:31:56;100639.94;;;8.41;100.00
30897;BME280;64229;52.246;21.054;2023-04-19T06:34:22;100649.69;;;8.52;100.00
30897;BME280;64229;52.246;21.054;2023-04-19T06:36:47;100646.03;;;8.58;100.00
30897;BME280;64229;52.246;21.054;2023-04-19T06:39:13;100647.97;;;8.63;100.00
30897;BME280;64229;52.246;21.054;2023-04-19T06:41:39;100640.72;;;8.75;100.00
30897;BME280;64229;52.246;21.054;2023-04-19T06:44:04;100653.38;;;8.85;100.00
30897;BME280;64229;52.246;21.054;2023-04-19T06:46:30;100649.00;;;8.95;100.00
30897;BME280;64229;52.246;21.054;2023-04-19T06:48:55;100646.63;;;8.99;100.00
30897;BME280;64229;52.246;21.054;2023-04-19T06:51:20;100640.66;;;9.09;100.00
30897;BME280;64229;52.246;21.054;2023-04-19T06:53:46;100655.41;;;9.16;100.00
30897;BME280;64229;52.246;21.054;2023-04-19T06:56:12;100656.75;;;9.19;100.00
30897;BME280;64229;52.246;21.054;2023-04-19T06:58:37;100633.88;;;9.01;100.00
30897;BME280;64229;52.246;21.054;2023-04-19T07:01:03;100659.03;;;9.10;100.00
30897;BME280;64229;52.246;21.054;2023-04-19T07:03:28;100660.59;;;9.06;100.00
30897;BME280;64229;52.246;21.054;2023-04-19T07:05:54;100657.69;;;9.08;100.00
30897;BME280;64229;52.246;21.054;2023-04-19T07:08:21;100656.06;;;9.07;100.00
30897;BME280;64229;52.246;21.054;2023-04-19T07:10:47;100667.81;;;9.11;100.00
30897;BME280;64229;52.246;21.054;2023-04-19T07:13:12;100665.72;;;9.13;100.00
30897;BME280;64229;52.246;21.054;2023-04-19T07:15:37;100615.75;;;8.81;100.00
30897;BME280;64229;52.246;21.054;2023-04-19T07:18:03;100660.03;;;9.04;100.00
30897;BME280;64229;52.246;21.054;2023-04-19T07:20:29;100642.28;;;8.93;100.00
30897;BME280;64229;52.246;21.054;2023-04-19T07:22:58;100661.66;;;9.05;100.00
30897;BME280;64229;52.246;21.054;2023-04-19T07:25:24;100660.84;;;9.05;100.00
30897;BME280;64229;52.246;21.054;2023-04-19T07:27:51;100657.19;;;9.11;100.00
30897;BME280;64229;52.246;21.054;2023-04-19T07:30:17;100653.72;;;9.10;100.00
30897;BME280;64229;52.246;21.054;2023-04-19T07:32:43;100658.06;;;9.16;100.00
30897;BME280;64229;52.246;21.054;2023-04-19T07:35:08;100659.69;;;9.17;100.00
30897;BME280;64229;52.246;21.054;2023-04-19T07:37:34;100666.78;;;9.12;100.00
30897;BME280;64229;52.246;21.054;2023-04-19T07:39:59;100657.97;;;9.11;100.00
30897;BME280;64229;52.246;21.054;2023-04-19T07:42:24;100660.47;;;9.18;100.00
30897;BME280;64229;52.246;21.054;2023-04-19T07:44:50;100669.06;;;9.25;100.00
30897;BME280;64229;52.246;21.054;2023-04-19T07:47:15;100668.91;;;9.32;100.00
30897;BME280;64229;52.246;21.054;2023-04-19T07:49:41;100662.47;;;9.27;100.00
30897;BME280;64229;52.246;21.054;2023-04-19T07:52:08;100670.00;;;9.36;100.00
30897;BME280;64229;52.246;21.054;2023-04-19T07:54:33;100668.91;;;9.32;100.00
30897;BME280;64229;52.246;21.054;2023-04-19T07:57:00;100664.94;;;9.34;100.00
30897;BME280;64229;52.246;21.054;2023-04-19T07:59:25;100669.72;;;9.32;100.00
30897;BME280;64229;52.246;21.054;2023-04-19T08:01:50;100665.19;;;9.33;100.00
30897;BME280;64229;52.246;21.054;2023-04-19T08:04:16;100667.34;;;9.36;100.00
30897;BME280;64229;52.246;21.054;2023-04-19T08:06:44;100670.09;;;9.41;100.00
30897;BME280;64229;52.246;21.054;2023-04-19T08:09:09;100666.69;;;9.45;100.00
30897;BME280;64229;52.246;21.054;2023-04-19T08:11:35;100670.72;;;9.48;100.00
30897;BME280;64229;52.246;21.054;2023-04-19T08:14:00;100668.78;;;9.43;100.00
30897;BME280;64229;52.246;21.054;2023-04-19T08:16:26;100665.44;;;9.53;100.00
30897;BME280;64229;52.246;21.054;2023-04-19T08:18:52;100665.00;;;9.61;99.37
30897;BME280;64229;52.246;21.054;2023-04-19T08:21:17;100666.63;;;9.62;100.00
30897;BME280;64229;52.246;21.054;2023-04-19T08:23:43;100667.16;;;9.64;97.70
30897;BME280;64229;52.246;21.054;2023-04-19T08:26:08;100668.78;;;9.65;98.81
30897;BME280;64229;52.246;21.054;2023-04-19T08:28:33;100662.25;;;9.78;97.44
30897;BME280;64229;52.246;21.054;2023-04-19T08:30:59;100645.72;;;9.76;95.34
30897;BME280;64229;52.246;21.054;2023-04-19T08:33:25;100669.91;;;9.96;94.21
30897;BME280;64229;52.246;21.054;2023-04-19T08:35:50;100649.25;;;9.81;94.06
30897;BME280;64229;52.246;21.054;2023-04-19T08:38:15;100667.81;;;9.98;95.12
30897;BME280;64229;52.246;21.054;2023-04-19T08:40:46;100666.09;;;10.14;93.62
30897;BME280;64229;52.246;21.054;2023-04-19T08:43:16;100653.03;;;10.12;91.23
30897;BME280;64229;52.246;21.054;2023-04-19T08:45:45;100677.72;;;10.25;92.31
30897;BME280;64229;52.246;21.054;2023-04-19T08:48:11;100668.38;;;10.27;91.68
30897;BME280;64229;52.246;21.054;2023-04-19T08:50:37;100672.25;;;10.41;92.02
30897;BME280;64229;52.246;21.054;2023-04-19T08:53:07;100676.84;;;10.51;91.67
30897;BME280;64229;52.246;21.054;2023-04-19T08:55:33;100682.53;;;10.60;91.48
30897;BME280;64229;52.246;21.054;2023-04-19T08:57:58;100683.94;;;10.67;90.17
30897;BME280;64229;52.246;21.054;2023-04-19T09:00:25;100682.59;;;10.65;90.40
30897;BME280;64229;52.246;21.054;2023-04-19T09:02:52;100681.34;;;10.78;87.95
30897;BME280;64229;52.246;21.054;2023-04-19T09:05:19;100684.28;;;10.76;89.06
30897;BME280;64229;52.246;21.054;2023-04-19T09:07:46;100678.69;;;10.78;90.30
30897;BME280;64229;52.246;21.054;2023-04-19T09:10:16;100679.75;;;10.82;87.62
30897;BME280;64229;52.246;21.054;2023-04-19T09:12:42;100679.28;;;10.85;88.61
30897;BME280;64229;52.246;21.054;2023-04-19T09:15:08;100680.03;;;10.80;88.90
30897;BME280;64229;52.246;21.054;2023-04-19T09:17:35;100692.06;;;10.83;87.61
30897;BME280;64229;52.246;21.054;2023-04-19T09:20:01;100681.69;;;10.86;86.80
30897;BME280;64229;52.246;21.054;2023-04-19T09:22:28;100700.13;;;10.88;86.47
30897;BME280;64229;52.246;21.054;2023-04-19T09:24:54;100694.97;;;10.81;86.24
30897;BME280;64229;52.246;21.054;2023-04-19T09:27:34;100685.25;;;10.65;86.33
30897;BME280;64229;52.246;21.054;2023-04-19T09:30:02;100698.63;;;10.65;87.56
30897;BME280;64229;52.246;21.054;2023-04-19T09:32:42;100698.34;;;10.66;86.55
30897;BME280;64229;52.246;21.054;2023-04-19T09:35:08;100699.97;;;10.67;87.72
30897;BME280;64229;52.246;21.054;2023-04-19T09:37:33;100697.03;;;10.69;85.97
30897;BME280;64229;52.246;21.054;2023-04-19T09:39:59;100694.81;;;10.61;87.97
30897;BME280;64229;52.246;21.054;2023-04-19T09:42:43;100699.34;;;10.60;87.03
30897;BME280;64229;52.246;21.054;2023-04-19T09:45:10;100699.91;;;10.62;87.30
30897;BME280;64229;52.246;21.054;2023-04-19T09:47:35;100699.34;;;10.55;88.44
30897;BME280;64229;52.246;21.054;2023-04-19T09:50:07;100693.72;;;10.57;87.58
30897;BME280;64229;52.246;21.054;2023-04-19T09:52:33;100698.81;;;10.58;88.55
30897;BME280;64229;52.246;21.054;2023-04-19T09:55:05;100701.19;;;10.55;88.17
30897;BME280;64229;52.246;21.054;2023-04-19T09:57:31;100700.66;;;10.53;89.58
30897;BME280;64229;52.246;21.054;2023-04-19T09:59:58;100697.75;;;10.59;89.65
30897;BME280;64229;52.246;21.054;2023-04-19T10:02:25;100706.91;;;10.68;87.31
30897;BME280;64229;52.246;21.054;2023-04-19T10:04:54;100690.88;;;10.63;87.10
30897;BME280;64229;52.246;21.054;2023-04-19T10:07:22;100705.63;;;10.76;86.43
30897;BME280;64229;52.246;21.054;2023-04-19T10:09:49;100706.72;;;10.80;86.25
30897;BME280;64229;52.246;21.054;2023-04-19T10:12:15;100700.50;;;10.69;87.40
30897;BME280;64229;52.246;21.054;2023-04-19T10:14:41;100700.47;;;10.64;88.15
30897;BME280;64229;52.246;21.054;2023-04-19T10:17:06;100691.94;;;10.67;87.88
30897;BME280;64229;52.246;21.054;2023-04-19T10:19:34;100705.97;;;10.85;87.79
30897;BME280;64229;52.246;21.054;2023-04-19T10:22:01;100701.31;;;10.70;87.64
30897;BME280;64229;52.246;21.054;2023-04-19T10:24:29;100700.25;;;10.71;89.67
30897;BME280;64229;52.246;21.054;2023-04-19T10:32:15;100715.47;;;10.70;89.66
30897;BME280;64229;52.246;21.054;2023-04-19T10:34:40;100708.84;;;10.78;89.27
30897;BME280;64229;52.246;21.054;2023-04-19T10:37:09;100709.44;;;10.85;88.61
30897;BME280;64229;52.246;21.054;2023-04-19T10:39:39;100700.31;;;10.81;88.22
30897;BME280;64229;52.246;21.054;2023-04-19T10:42:05;100711.34;;;10.90;88.98
30897;BME280;64229;52.246;21.054;2023-04-19T10:44:31;100710.81;;;10.93;88.39
30897;BME280;64229;52.246;21.054;2023-04-19T10:46:57;100699.72;;;11.06;86.23
30897;BME280;64229;52.246;21.054;2023-04-19T10:49:23;100704.84;;;11.18;85.74
30897;BME280;64229;52.246;21.054;2023-04-19T10:51:49;100704.34;;;11.21;87.73
30897;BME280;64229;52.246;21.054;2023-04-19T10:57:09;100707.72;;;11.58;85.10
30897;BME280;64229;52.246;21.054;2023-04-19T10:59:36;100703.22;;;11.64;83.82
30897;BME280;64229;52.246;21.054;2023-04-19T11:07:15;100713.47;;;11.82;82.28
30897;BME280;64229;52.246;21.054;2023-04-19T11:09:46;100709.72;;;11.83;82.31
30897;BME280;64229;52.246;21.054;2023-04-19T11:12:19;100706.53;;;11.81;82.83
30897;BME280;64229;52.246;21.054;2023-04-19T11:14:47;100684.31;;;11.86;82.14
30897;BME280;64229;52.246;21.054;2023-04-19T11:17:17;100706.31;;;12.08;81.46
30897;BME280;64229;52.246;21.054;2023-04-19T11:19:44;100706.09;;;12.25;81.05
30897;BME280;64229;52.246;21.054;2023-04-19T11:22:10;100705.03;;;12.47;81.11
30897;BME280;64229;52.246;21.054;2023-04-19T11:24:35;100703.97;;;12.73;77.63
30897;BME280;64229;52.246;21.054;2023-04-19T11:27:06;100698.88;;;12.82;78.24
30897;BME280;64229;52.246;21.054;2023-04-19T11:29:31;100703.13;;;13.23;75.39
30897;BME280;64229;52.246;21.054;2023-04-19T11:31:58;100700.97;;;13.15;77.45
30897;BME280;64229;52.246;21.054;2023-04-19T11:34:24;100704.94;;;13.38;77.92
30897;BME280;64229;52.246;21.054;2023-04-19T11:36:52;100713.16;;;13.67;76.92
30897;BME280;64229;52.246;21.054;2023-04-19T11:39:18;100698.63;;;13.78;71.38
30897;BME280;64229;52.246;21.054;2023-04-19T11:41:43;100703.09;;;13.98;71.79
30897;BME280;64229;52.246;21.054;2023-04-19T11:44:18;100695.69;;;14.24;70.86
30897;BME280;64229;52.246;21.054;2023-04-19T11:46:57;100701.53;;;14.36;71.26
30897;BME280;64229;52.246;21.054;2023-04-19T11:49:30;100706.34;;;14.73;70.22
30897;BME280;64229;52.246;21.054;2023-04-19T11:52:00;100702.66;;;15.22;67.33
30897;BME280;64229;52.246;21.054;2023-04-19T11:54:26;100708.25;;;15.26;66.08
30897;BME280;64229;52.246;21.054;2023-04-19T11:57:05;100706.19;;;15.42;65.89
30897;BME280;64229;52.246;21.054;2023-04-19T11:59:31;100700.69;;;15.52;65.01
30897;BME280;64229;52.246;21.054;2023-04-19T12:02:23;100699.41;;;14.96;66.23
30897;BME280;64229;52.246;21.054;2023-04-19T12:04:50;100699.31;;;14.77;68.25
30897;BME280;64229;52.246;21.054;2023-04-19T12:07:15;100704.06;;;14.91;67.80
30897;BME280;64229;52.246;21.054;2023-04-19T12:09:41;100703.00;;;14.87;66.09
30897;BME280;64229;52.246;21.054;2023-04-19T12:12:06;100709.09;;;14.68;67.58
30897;BME280;64229;52.246;21.054;2023-04-19T12:14:31;100705.31;;;14.30;69.42
30897;BME280;64229;52.246;21.054;2023-04-19T12:17:08;100709.03;;;14.34;69.71
30897;BME280;64229;52.246;21.054;2023-04-19T12:19:45;100703.06;;;14.42;69.09
30897;BME280;64229;52.246;21.054;2023-04-19T12:22:16;100712.63;;;14.19;70.65
30897;BME280;64229;52.246;21.054;2023-04-19T12:24:43;100703.78;;;14.14;70.59
30897;BME280;64229;52.246;21.054;2023-04-19T12:27:09;100692.47;;;13.83;69.53
30897;BME280;64229;52.246;21.054;2023-04-19T12:29:34;100709.13;;;13.70;70.95
30897;BME280;64229;52.246;21.054;2023-04-19T12:32:00;100698.69;;;13.68;70.06
30897;BME280;64229;52.246;21.054;2023-04-19T12:34:26;100718.78;;;13.71;69.85
30897;BME280;64229;52.246;21.054;2023-04-19T12:36:52;100714.84;;;13.48;70.49
30897;BME280;64229;52.246;21.054;2023-04-19T12:39:17;100712.78;;;13.29;70.83
30897;BME280;64229;52.246;21.054;2023-04-19T12:41:43;100715.94;;;13.37;70.17
30897;BME280;64229;52.246;21.054;2023-04-19T12:44:08;100720.81;;;13.09;70.22
30897;BME280;64229;52.246;21.054;2023-04-19T12:46:33;100727.75;;;13.15;69.81
30897;BME280;64229;52.246;21.054;2023-04-19T12:48:59;100721.88;;;13.03;70.44